Aquebogue, New York
Current Conditions -  °F | °C
As of 10:53 PM on Wednesday 28 Jan 2015 (Local Time) from KFOK Reporting Station
Clear Clear  
Wind Chill: 11°   Ceiling: Unl
Heat Index: 21°   Visibility: 10mi
Dew Point:   Wind: 8mph
Humidity: 50%   Direction: 350°N
Pressure: 30.24"   Gusts: NA
Location:  40.94°N, 72.61°W
Report Text: KFOK 290353Z 35007KT 10SM CLR M06/M15 A3024 RMK AO2 SLP242 T10611150
Loading
Personal Weather Stations






























Interactive Weather Map New forecast layout! Learn more

10-Day Weather Forecast

Advertisements
Track Severe Weather on mobile